sensor_id;sensor_type;location;lat;lon;timestamp;temperature;humidity
913;DHT22;443;51.448;7.028;2022-09-27T00:01:30;15.80;82.10
913;DHT22;443;51.448;7.028;2022-09-27T00:03:56;15.90;82.30
913;DHT22;443;51.448;7.028;2022-09-27T00:06:27;15.70;81.80
913;DHT22;443;51.448;7.028;2022-09-27T00:08:54;15.80;82.10
913;DHT22;443;51.448;7.028;2022-09-27T00:11:25;15.80;82.00
913;DHT22;443;51.448;7.028;2022-09-27T00:13:53;15.70;82.10
913;DHT22;443;51.448;7.028;2022-09-27T00:16:20;15.80;81.70
913;DHT22;443;51.448;7.028;2022-09-27T00:18:47;15.70;80.90
913;DHT22;443;51.448;7.028;2022-09-27T00:21:14;15.70;82.20
913;DHT22;443;51.448;7.028;2022-09-27T00:23:43;15.60;80.60
913;DHT22;443;51.448;7.028;2022-09-27T00:26:11;15.60;80.70
913;DHT22;443;51.448;7.028;2022-09-27T00:28:38;15.60;80.40
913;DHT22;443;51.448;7.028;2022-09-27T00:31:13;15.60;80.50
913;DHT22;443;51.448;7.028;2022-09-27T00:33:43;15.60;79.70
913;DHT22;443;51.448;7.028;2022-09-27T00:36:09;15.70;81.80
913;DHT22;443;51.448;7.028;2022-09-27T00:38:36;15.60;80.90
913;DHT22;443;51.448;7.028;2022-09-27T00:41:05;15.50;81.50
913;DHT22;443;51.448;7.028;2022-09-27T00:43:43;15.60;82.10
913;DHT22;443;51.448;7.028;2022-09-27T00:46:12;15.60;81.70
913;DHT22;443;51.448;7.028;2022-09-27T00:48:42;15.60;81.30
913;DHT22;443;51.448;7.028;2022-09-27T00:51:10;15.60;81.80
913;DHT22;443;51.448;7.028;2022-09-27T00:53:39;15.50;81.00
913;DHT22;443;51.448;7.028;2022-09-27T00:56:12;15.60;82.20
913;DHT22;443;51.448;7.028;2022-09-27T00:58:45;15.60;81.80
913;DHT22;443;51.448;7.028;2022-09-27T01:01:13;15.60;82.20
913;DHT22;443;51.448;7.028;2022-09-27T01:03:44;15.50;81.30
913;DHT22;443;51.448;7.028;2022-09-27T01:06:13;15.50;80.60
913;DHT22;443;51.448;7.028;2022-09-27T01:08:41;15.60;82.30
913;DHT22;443;51.448;7.028;2022-09-27T01:11:17;15.50;82.30
913;DHT22;443;51.448;7.028;2022-09-27T01:13:56;15.50;81.10
913;DHT22;443;51.448;7.028;2022-09-27T01:16:31;15.50;81.20
913;DHT22;443;51.448;7.028;2022-09-27T01:19:08;15.50;82.00
913;DHT22;443;51.448;7.028;2022-09-27T01:21:50;15.50;81.30
913;DHT22;443;51.448;7.028;2022-09-27T01:27:41;15.50;82.40
913;DHT22;443;51.448;7.028;2022-09-27T01:30:21;15.50;82.40
913;DHT22;443;51.448;7.028;2022-09-27T01:32:54;15.40;80.90
913;DHT22;443;51.448;7.028;2022-09-27T01:35:31;15.30;80.00
913;DHT22;443;51.448;7.028;2022-09-27T01:38:12;15.30;80.90
913;DHT22;443;51.448;7.028;2022-09-27T01:40:48;15.40;80.50
913;DHT22;443;51.448;7.028;2022-09-27T01:43:20;15.40;82.10
913;DHT22;443;51.448;7.028;2022-09-27T01:45:53;15.40;81.30
913;DHT22;443;51.448;7.028;2022-09-27T01:48:22;15.30;80.80
913;DHT22;443;51.448;7.028;2022-09-27T01:50:53;15.30;81.30
913;DHT22;443;51.448;7.028;2022-09-27T01:53:24;15.40;81.40
913;DHT22;443;51.448;7.028;2022-09-27T01:55:54;15.50;81.90
913;DHT22;443;51.448;7.028;2022-09-27T01:58:25;15.50;81.40
913;DHT22;443;51.448;7.028;2022-09-27T02:00:56;15.40;81.70
913;DHT22;443;51.448;7.028;2022-09-27T02:03:26;15.40;81.90
913;DHT22;443;51.448;7.028;2022-09-27T02:05:57;15.40;81.20
913;DHT22;443;51.448;7.028;2022-09-27T02:08:30;15.40;80.90
913;DHT22;443;51.448;7.028;2022-09-27T02:11:02;15.40;81.60
913;DHT22;443;51.448;7.028;2022-09-27T02:13:34;15.40;80.40
913;DHT22;443;51.448;7.028;2022-09-27T02:16:12;15.40;81.70
913;DHT22;443;51.448;7.028;2022-09-27T02:18:51;15.40;81.40
913;DHT22;443;51.448;7.028;2022-09-27T02:21:20;15.40;80.60
913;DHT22;443;51.448;7.028;2022-09-27T02:23:52;15.40;81.00
913;DHT22;443;51.448;7.028;2022-09-27T02:26:23;15.40;81.10
913;DHT22;443;51.448;7.028;2022-09-27T02:28:58;15.40;80.10
913;DHT22;443;51.448;7.028;2022-09-27T02:31:27;15.40;80.10
913;DHT22;443;51.448;7.028;2022-09-27T02:33:58;15.50;81.90
913;DHT22;443;51.448;7.028;2022-09-27T02:36:27;15.40;79.70
913;DHT22;443;51.448;7.028;2022-09-27T02:38:54;15.40;82.00
913;DHT22;443;51.448;7.028;2022-09-27T02:41:22;15.50;82.30
913;DHT22;443;51.448;7.028;2022-09-27T02:43:51;15.50;82.20
913;DHT22;443;51.448;7.028;2022-09-27T02:46:55;15.40;80.80
913;DHT22;443;51.448;7.028;2022-09-27T02:49:42;15.40;79.90
913;DHT22;443;51.448;7.028;2022-09-27T02:52:16;15.40;80.40
913;DHT22;443;51.448;7.028;2022-09-27T02:54:54;15.40;81.10
913;DHT22;443;51.448;7.028;2022-09-27T02:57:32;15.40;80.40
913;DHT22;443;51.448;7.028;2022-09-27T03:00:04;15.40;81.90
913;DHT22;443;51.448;7.028;2022-09-27T03:02:40;15.40;79.60
913;DHT22;443;51.448;7.028;2022-09-27T03:05:11;15.40;82.20
913;DHT22;443;51.448;7.028;2022-09-27T03:07:38;15.40;81.20
913;DHT22;443;51.448;7.028;2022-09-27T03:10:06;15.40;80.80
913;DHT22;443;51.448;7.028;2022-09-27T03:12:33;15.40;80.50
913;DHT22;443;51.448;7.028;2022-09-27T03:15:00;15.30;79.30
913;DHT22;443;51.448;7.028;2022-09-27T03:17:27;15.40;81.00
913;DHT22;443;51.448;7.028;2022-09-27T03:19:56;15.40;80.70
913;DHT22;443;51.448;7.028;2022-09-27T03:22:23;15.40;81.00
913;DHT22;443;51.448;7.028;2022-09-27T03:24:49;15.40;81.00
913;DHT22;443;51.448;7.028;2022-09-27T03:27:17;15.40;81.30
913;DHT22;443;51.448;7.028;2022-09-27T03:29:44;15.40;80.60
913;DHT22;443;51.448;7.028;2022-09-27T03:32:11;15.40;81.90
913;DHT22;443;51.448;7.028;2022-09-27T03:34:37;15.40;79.90
913;DHT22;443;51.448;7.028;2022-09-27T03:37:06;15.40;81.50
913;DHT22;443;51.448;7.028;2022-09-27T03:39:33;15.30;79.20
913;DHT22;443;51.448;7.028;2022-09-27T03:42:00;15.30;81.70
913;DHT22;443;51.448;7.028;2022-09-27T03:44:26;15.40;82.50
913;DHT22;443;51.448;7.028;2022-09-27T03:46:53;15.40;80.50
913;DHT22;443;51.448;7.028;2022-09-27T03:49:20;15.30;80.20
913;DHT22;443;51.448;7.028;2022-09-27T03:51:47;15.30;80.60
913;DHT22;443;51.448;7.028;2022-09-27T03:54:15;15.30;80.60
913;DHT22;443;51.448;7.028;2022-09-27T03:56:42;15.20;81.00
913;DHT22;443;51.448;7.028;2022-09-27T03:59:09;15.20;81.30
913;DHT22;443;51.448;7.028;2022-09-27T04:01:36;15.10;80.40
913;DHT22;443;51.448;7.028;2022-09-27T04:04:03;15.10;80.30
913;DHT22;443;51.448;7.028;2022-09-27T04:06:30;15.20;80.40
913;DHT22;443;51.448;7.028;2022-09-27T04:08:59;15.10;80.20
913;DHT22;443;51.448;7.028;2022-09-27T04:11:28;15.20;80.10
913;DHT22;443;51.448;7.028;2022-09-27T04:13:55;15.20;81.90
913;DHT22;443;51.448;7.028;2022-09-27T04:16:22;15.20;80.70
913;DHT22;443;51.448;7.028;2022-09-27T04:18:49;15.30;83.10
913;DHT22;443;51.448;7.028;2022-09-27T04:21:16;15.20;80.30
913;DHT22;443;51.448;7.028;2022-09-27T04:23:45;15.20;80.00
913;DHT22;443;51.448;7.028;2022-09-27T04:26:12;15.10;80.10
913;DHT22;443;51.448;7.028;2022-09-27T04:28:40;15.10;79.70
913;DHT22;443;51.448;7.028;2022-09-27T04:31:07;15.10;79.90
913;DHT22;443;51.448;7.028;2022-09-27T04:33:34;15.10;79.20
913;DHT22;443;51.448;7.028;2022-09-27T04:36:01;15.10;80.10
913;DHT22;443;51.448;7.028;2022-09-27T04:38:45;15.10;79.20
913;DHT22;443;51.448;7.028;2022-09-27T04:41:13;15.10;79.40
913;DHT22;443;51.448;7.028;2022-09-27T04:43:41;15.10;80.40
913;DHT22;443;51.448;7.028;2022-09-27T04:46:08;15.10;80.50
913;DHT22;443;51.448;7.028;2022-09-27T04:48:35;15.00;79.70
913;DHT22;443;51.448;7.028;2022-09-27T04:51:03;15.10;80.70
913;DHT22;443;51.448;7.028;2022-09-27T04:53:31;15.20;80.80
913;DHT22;443;51.448;7.028;2022-09-27T04:55:58;15.10;81.80
913;DHT22;443;51.448;7.028;2022-09-27T04:58:26;15.10;79.70
913;DHT22;443;51.448;7.028;2022-09-27T05:00:55;15.10;80.40
913;DHT22;443;51.448;7.028;2022-09-27T05:03:23;15.10;78.90
913;DHT22;443;51.448;7.028;2022-09-27T05:05:50;15.00;78.80
913;DHT22;443;51.448;7.028;2022-09-27T05:08:17;15.00;79.20
913;DHT22;443;51.448;7.028;2022-09-27T05:10:44;15.00;79.20
913;DHT22;443;51.448;7.028;2022-09-27T05:13:11;15.00;78.50
913;DHT22;443;51.448;7.028;2022-09-27T05:15:38;15.00;78.90
913;DHT22;443;51.448;7.028;2022-09-27T05:18:07;15.10;81.70
913;DHT22;443;51.448;7.028;2022-09-27T05:20:34;15.00;79.30
913;DHT22;443;51.448;7.028;2022-09-27T05:23:02;15.00;80.40
913;DHT22;443;51.448;7.028;2022-09-27T05:25:29;15.00;78.80
913;DHT22;443;51.448;7.028;2022-09-27T05:27:57;14.90;78.40
913;DHT22;443;51.448;7.028;2022-09-27T05:30:24;15.00;79.80
913;DHT22;443;51.448;7.028;2022-09-27T05:32:52;14.90;77.50
913;DHT22;443;51.448;7.028;2022-09-27T05:35:20;14.90;78.60
913;DHT22;443;51.448;7.028;2022-09-27T05:37:51;15.00;80.60
913;DHT22;443;51.448;7.028;2022-09-27T05:40:17;14.90;78.50
913;DHT22;443;51.448;7.028;2022-09-27T05:42:49;14.90;81.00
913;DHT22;443;51.448;7.028;2022-09-27T05:45:16;14.90;80.00
913;DHT22;443;51.448;7.028;2022-09-27T05:47:43;15.00;80.30
913;DHT22;443;51.448;7.028;2022-09-27T05:50:10;15.00;81.90
913;DHT22;443;51.448;7.028;2022-09-27T05:52:38;15.00;78.70
913;DHT22;443;51.448;7.028;2022-09-27T05:55:05;15.00;78.50
913;DHT22;443;51.448;7.028;2022-09-27T05:57:32;14.90;79.70
913;DHT22;443;51.448;7.028;2022-09-27T05:59:59;15.00;79.40
913;DHT22;443;51.448;7.028;2022-09-27T06:02:26;15.00;77.40
913;DHT22;443;51.448;7.028;2022-09-27T06:04:53;14.90;79.20
913;DHT22;443;51.448;7.028;2022-09-27T06:07:21;14.90;78.20
913;DHT22;443;51.448;7.028;2022-09-27T06:09:49;14.80;79.70
913;DHT22;443;51.448;7.028;2022-09-27T06:12:16;14.80;78.40
913;DHT22;443;51.448;7.028;2022-09-27T06:14:44;14.90;79.10
913;DHT22;443;51.448;7.028;2022-09-27T06:17:12;14.90;78.90
913;DHT22;443;51.448;7.028;2022-09-27T06:19:39;15.00;80.10
913;DHT22;443;51.448;7.028;2022-09-27T06:22:06;15.00;78.80
913;DHT22;443;51.448;7.028;2022-09-27T06:24:33;14.90;77.80
913;DHT22;443;51.448;7.028;2022-09-27T06:27:02;14.90;79.70
913;DHT22;443;51.448;7.028;2022-09-27T06:29:29;14.90;79.70
913;DHT22;443;51.448;7.028;2022-09-27T06:31:59;14.90;78.10
913;DHT22;443;51.448;7.028;2022-09-27T06:34:26;14.90;77.60
913;DHT22;443;51.448;7.028;2022-09-27T06:36:53;14.90;78.00
913;DHT22;443;51.448;7.028;2022-09-27T06:39:21;14.90;79.40
913;DHT22;443;51.448;7.028;2022-09-27T06:41:52;14.90;78.20
913;DHT22;443;51.448;7.028;2022-09-27T06:44:24;14.90;77.30
913;DHT22;443;51.448;7.028;2022-09-27T06:46:51;14.90;79.30
913;DHT22;443;51.448;7.028;2022-09-27T06:49:19;14.80;77.80
913;DHT22;443;51.448;7.028;2022-09-27T06:51:47;14.80;78.50
913;DHT22;443;51.448;7.028;2022-09-27T06:54:14;14.80;77.00
913;DHT22;443;51.448;7.028;2022-09-27T06:56:41;14.80;78.40
913;DHT22;443;51.448;7.028;2022-09-27T06:59:08;14.90;77.10
913;DHT22;443;51.448;7.028;2022-09-27T07:01:54;14.90;78.80
913;DHT22;443;51.448;7.028;2022-09-27T07:04:21;15.00;79.50
913;DHT22;443;51.448;7.028;2022-09-27T07:06:48;15.00;79.40
913;DHT22;443;51.448;7.028;2022-09-27T07:09:15;15.00;79.00
913;DHT22;443;51.448;7.028;2022-09-27T07:11:42;15.00;78.80
913;DHT22;443;51.448;7.028;2022-09-27T07:14:10;15.00;79.40
913;DHT22;443;51.448;7.028;2022-09-27T07:16:37;15.00;79.80
913;DHT22;443;51.448;7.028;2022-09-27T07:19:06;14.90;76.50
913;DHT22;443;51.448;7.028;2022-09-27T07:21:36;14.90;79.80
913;DHT22;443;51.448;7.028;2022-09-27T07:24:03;15.00;77.60
913;DHT22;443;51.448;7.028;2022-09-27T07:26:29;15.00;76.30
913;DHT22;443;51.448;7.028;2022-09-27T07:28:56;15.10;78.60
913;DHT22;443;51.448;7.028;2022-09-27T07:31:24;15.00;80.30
913;DHT22;443;51.448;7.028;2022-09-27T07:33:50;15.00;77.90
913;DHT22;443;51.448;7.028;2022-09-27T07:36:19;15.00;77.20
913;DHT22;443;51.448;7.028;2022-09-27T07:38:46;15.00;76.80
913;DHT22;443;51.448;7.028;2022-09-27T07:41:14;14.90;77.50
913;DHT22;443;51.448;7.028;2022-09-27T07:43:41;15.00;80.40
913;DHT22;443;51.448;7.028;2022-09-27T07:46:09;15.00;77.90
913;DHT22;443;51.448;7.028;2022-09-27T07:48:37;15.10;77.30
913;DHT22;443;51.448;7.028;2022-09-27T07:51:05;15.00;78.70
913;DHT22;443;51.448;7.028;2022-09-27T07:53:36;15.00;77.30
913;DHT22;443;51.448;7.028;2022-09-27T07:56:05;15.10;76.10
913;DHT22;443;51.448;7.028;2022-09-27T07:58:32;15.10;77.50
913;DHT22;443;51.448;7.028;2022-09-27T08:00:59;15.10;77.40
913;DHT22;443;51.448;7.028;2022-09-27T08:03:27;15.10;77.20
913;DHT22;443;51.448;7.028;2022-09-27T08:05:54;15.10;76.30
913;DHT22;443;51.448;7.028;2022-09-27T08:08:21;15.20;78.90
913;DHT22;443;51.448;7.028;2022-09-27T08:10:50;15.10;77.40
913;DHT22;443;51.448;7.028;2022-09-27T08:13:17;15.10;77.40
913;DHT22;443;51.448;7.028;2022-09-27T08:15:44;15.20;80.10
913;DHT22;443;51.448;7.028;2022-09-27T08:18:11;15.10;77.50
913;DHT22;443;51.448;7.028;2022-09-27T08:20:38;15.10;76.50
913;DHT22;443;51.448;7.028;2022-09-27T08:23:05;15.00;76.20
913;DHT22;443;51.448;7.028;2022-09-27T08:25:32;15.00;76.60
913;DHT22;443;51.448;7.028;2022-09-27T08:28:02;15.10;78.70
913;DHT22;443;51.448;7.028;2022-09-27T08:30:30;15.10;77.50
913;DHT22;443;51.448;7.028;2022-09-27T08:32:58;15.30;78.00
913;DHT22;443;51.448;7.028;2022-09-27T08:35:27;15.30;79.20
913;DHT22;443;51.448;7.028;2022-09-27T08:37:55;15.40;77.20
913;DHT22;443;51.448;7.028;2022-09-27T08:40:26;15.30;75.30
913;DHT22;443;51.448;7.028;2022-09-27T08:43:02;15.30;76.30
913;DHT22;443;51.448;7.028;2022-09-27T08:45:35;15.30;76.60
913;DHT22;443;51.448;7.028;2022-09-27T08:48:05;15.30;76.10
913;DHT22;443;51.448;7.028;2022-09-27T08:50:35;15.40;79.70
913;DHT22;443;51.448;7.028;2022-09-27T08:53:06;15.40;76.60
913;DHT22;443;51.448;7.028;2022-09-27T08:55:41;15.30;78.30
913;DHT22;443;51.448;7.028;2022-09-27T08:58:13;15.40;78.10
913;DHT22;443;51.448;7.028;2022-09-27T09:00:42;15.40;79.50
913;DHT22;443;51.448;7.028;2022-09-27T09:03:16;15.40;77.50
913;DHT22;443;51.448;7.028;2022-09-27T09:05:51;15.30;75.50
913;DHT22;443;51.448;7.028;2022-09-27T09:08:29;15.30;76.40
913;DHT22;443;51.448;7.028;2022-09-27T09:11:05;15.40;78.30
913;DHT22;443;51.448;7.028;2022-09-27T09:14:20;15.30;79.20
913;DHT22;443;51.448;7.028;2022-09-27T09:16:57;15.40;77.90
913;DHT22;443;51.448;7.028;2022-09-27T09:19:43;15.30;76.40
913;DHT22;443;51.448;7.028;2022-09-27T09:22:26;15.20;75.30
913;DHT22;443;51.448;7.028;2022-09-27T09:25:11;15.30;79.50
913;DHT22;443;51.448;7.028;2022-09-27T09:27:48;15.30;78.80
913;DHT22;443;51.448;7.028;2022-09-27T09:30:21;15.30;77.70
913;DHT22;443;51.448;7.028;2022-09-27T09:33:08;15.20;76.00
913;DHT22;443;51.448;7.028;2022-09-27T09:35:41;15.20;77.40
913;DHT22;443;51.448;7.028;2022-09-27T09:38:12;15.30;78.20
913;DHT22;443;51.448;7.028;2022-09-27T09:40:44;15.30;78.30
913;DHT22;443;51.448;7.028;2022-09-27T09:43:14;15.40;78.60
913;DHT22;443;51.448;7.028;2022-09-27T09:45:47;15.40;78.60
913;DHT22;443;51.448;7.028;2022-09-27T09:48:20;15.40;77.60
913;DHT22;443;51.448;7.028;2022-09-27T09:50:52;15.30;76.60
913;DHT22;443;51.448;7.028;2022-09-27T09:53:33;15.30;76.70
913;DHT22;443;51.448;7.028;2022-09-27T09:56:06;15.30;77.90
913;DHT22;443;51.448;7.028;2022-09-27T09:58:40;15.20;77.30
913;DHT22;443;51.448;7.028;2022-09-27T10:01:16;15.30;77.30
913;DHT22;443;51.448;7.028;2022-09-27T10:03:44;15.30;78.20
913;DHT22;443;51.448;7.028;2022-09-27T10:06:12;15.40;79.00
913;DHT22;443;51.448;7.028;2022-09-27T10:08:40;15.30;77.20
913;DHT22;443;51.448;7.028;2022-09-27T10:11:17;15.40;78.20
913;DHT22;443;51.448;7.028;2022-09-27T10:13:45;15.30;78.50
913;DHT22;443;51.448;7.028;2022-09-27T10:16:16;15.30;78.80
913;DHT22;443;51.448;7.028;2022-09-27T10:18:44;15.30;77.80
913;DHT22;443;51.448;7.028;2022-09-27T10:21:14;15.40;79.90
913;DHT22;443;51.448;7.028;2022-09-27T10:24:06;15.40;78.00
913;DHT22;443;51.448;7.028;2022-09-27T10:26:35;15.40;78.90
913;DHT22;443;51.448;7.028;2022-09-27T10:29:15;15.40;79.00
913;DHT22;443;51.448;7.028;2022-09-27T10:31:45;15.50;79.50
913;DHT22;443;51.448;7.028;2022-09-27T10:34:29;15.50;79.20
913;DHT22;443;51.448;7.028;2022-09-27T10:37:06;15.50;78.50
913;DHT22;443;51.448;7.028;2022-09-27T10:39:33;15.50;79.60
913;DHT22;443;51.448;7.028;2022-09-27T10:42:01;15.50;78.20
913;DHT22;443;51.448;7.028;2022-09-27T10:44:30;15.40;77.60
913;DHT22;443;51.448;7.028;2022-09-27T10:47:00;15.50;78.60
913;DHT22;443;51.448;7.028;2022-09-27T10:49:33;15.50;79.50
913;DHT22;443;51.448;7.028;2022-09-27T10:52:02;15.50;78.90
913;DHT22;443;51.448;7.028;2022-09-27T10:54:33;15.60;79.10
913;DHT22;443;51.448;7.028;2022-09-27T10:57:02;15.70;78.30
913;DHT22;443;51.448;7.028;2022-09-27T10:59:33;15.70;79.20
913;DHT22;443;51.448;7.028;2022-09-27T11:02:03;15.70;78.60
913;DHT22;443;51.448;7.028;2022-09-27T11:04:33;15.70;77.90
913;DHT22;443;51.448;7.028;2022-09-27T11:07:11;15.70;78.20
913;DHT22;443;51.448;7.028;2022-09-27T11:09:47;15.80;79.50
913;DHT22;443;51.448;7.028;2022-09-27T11:12:15;15.80;78.90
913;DHT22;443;51.448;7.028;2022-09-27T11:14:52;15.80;78.70
913;DHT22;443;51.448;7.028;2022-09-27T11:17:26;15.80;77.20
913;DHT22;443;51.448;7.028;2022-09-27T11:20:20;15.80;78.10
913;DHT22;443;51.448;7.028;2022-09-27T11:23:22;15.80;77.00
913;DHT22;443;51.448;7.028;2022-09-27T11:26:02;15.80;78.80
913;DHT22;443;51.448;7.028;2022-09-27T11:28:41;15.70;73.90
913;DHT22;443;51.448;7.028;2022-09-27T11:31:16;15.80;78.00
913;DHT22;443;51.448;7.028;2022-09-27T11:34:03;15.70;75.00
913;DHT22;443;51.448;7.028;2022-09-27T11:36:43;15.70;74.80
913;DHT22;443;51.448;7.028;2022-09-27T11:39:19;15.80;76.70
913;DHT22;443;51.448;7.028;2022-09-27T11:41:59;15.80;75.20
913;DHT22;443;51.448;7.028;2022-09-27T11:44:50;15.80;76.10
913;DHT22;443;51.448;7.028;2022-09-27T11:47:24;15.80;75.70
913;DHT22;443;51.448;7.028;2022-09-27T11:50:16;15.80;77.00
913;DHT22;443;51.448;7.028;2022-09-27T11:52:56;15.80;76.00
913;DHT22;443;51.448;7.028;2022-09-27T11:55:37;15.80;76.90
913;DHT22;443;51.448;7.028;2022-09-27T11:58:13;15.90;77.10
913;DHT22;443;51.448;7.028;2022-09-27T12:00:55;15.90;75.20
913;DHT22;443;51.448;7.028;2022-09-27T12:03:53;15.90;76.70
913;DHT22;443;51.448;7.028;2022-09-27T12:06:34;15.90;76.70
913;DHT22;443;51.448;7.028;2022-09-27T12:09:10;16.00;74.60
913;DHT22;443;51.448;7.028;2022-09-27T12:11:40;16.00;74.70
913;DHT22;443;51.448;7.028;2022-09-27T12:14:14;16.00;74.10
913;DHT22;443;51.448;7.028;2022-09-27T12:16:42;16.00;76.50
913;DHT22;443;51.448;7.028;2022-09-27T12:19:16;16.00;77.60
913;DHT22;443;51.448;7.028;2022-09-27T12:21:46;15.90;75.70
913;DHT22;443;51.448;7.028;2022-09-27T12:24:18;16.00;78.90
913;DHT22;443;51.448;7.028;2022-09-27T12:26:48;15.90;75.90
913;DHT22;443;51.448;7.028;2022-09-27T12:29:20;15.90;77.60
913;DHT22;443;51.448;7.028;2022-09-27T12:31:55;15.90;77.30
913;DHT22;443;51.448;7.028;2022-09-27T12:34:27;15.80;76.00
913;DHT22;443;51.448;7.028;2022-09-27T12:37:01;15.70;77.30
913;DHT22;443;51.448;7.028;2022-09-27T12:39:36;15.80;78.00
913;DHT22;443;51.448;7.028;2022-09-27T12:42:11;15.70;77.20
913;DHT22;443;51.448;7.028;2022-09-27T12:44:40;15.80;78.20
913;DHT22;443;51.448;7.028;2022-09-27T12:47:16;15.70;78.00
913;DHT22;443;51.448;7.028;2022-09-27T12:49:52;15.70;78.90
913;DHT22;443;51.448;7.028;2022-09-27T12:52:29;15.60;77.60
913;DHT22;443;51.448;7.028;2022-09-27T12:55:17;15.60;77.90
913;DHT22;443;51.448;7.028;2022-09-27T12:58:05;15.70;77.70
913;DHT22;443;51.448;7.028;2022-09-27T13:00:42;15.60;76.10
913;DHT22;443;51.448;7.028;2022-09-27T13:03:27;15.60;77.00
913;DHT22;443;51.448;7.028;2022-09-27T13:11:53;15.70;76.90
913;DHT22;443;51.448;7.028;2022-09-27T13:14:27;15.70;78.40
913;DHT22;443;51.448;7.028;2022-09-27T13:16:55;15.60;76.60
913;DHT22;443;51.448;7.028;2022-09-27T13:19:38;15.70;76.60
913;DHT22;443;51.448;7.028;2022-09-27T13:22:07;15.60;76.80
913;DHT22;443;51.448;7.028;2022-09-27T13:24:42;15.80;77.50
913;DHT22;443;51.448;7.028;2022-09-27T13:27:39;15.70;77.80
913;DHT22;443;51.448;7.028;2022-09-27T13:33:39;15.70;77.00
913;DHT22;443;51.448;7.028;2022-09-27T13:36:18;15.70;77.90
913;DHT22;443;51.448;7.028;2022-09-27T13:39:12;15.80;79.50
913;DHT22;443;51.448;7.028;2022-09-27T13:41:56;15.80;75.90
913;DHT22;443;51.448;7.028;2022-09-27T13:44:36;15.90;77.90
913;DHT22;443;51.448;7.028;2022-09-27T13:47:19;16.00;77.90
913;DHT22;443;51.448;7.028;2022-09-27T13:49:52;16.00;79.00
913;DHT22;443;51.448;7.028;2022-09-27T13:52:26;15.90;77.00
913;DHT22;443;51.448;7.028;2022-09-27T13:54:57;16.00;75.70
913;DHT22;443;51.448;7.028;2022-09-27T13:57:40;16.00;75.80
913;DHT22;443;51.448;7.028;2022-09-27T14:00:12;16.00;75.40
913;DHT22;443;51.448;7.028;2022-09-27T14:02:48;16.00;74.70
913;DHT22;443;51.448;7.028;2022-09-27T14:05:20;16.00;74.60
913;DHT22;443;51.448;7.028;2022-09-27T14:07:49;16.10;76.30
913;DHT22;443;51.448;7.028;2022-09-27T14:10:19;16.10;75.80
913;DHT22;443;51.448;7.028;2022-09-27T14:12:51;16.10;75.10
913;DHT22;443;51.448;7.028;2022-09-27T14:15:22;16.20;73.90
913;DHT22;443;51.448;7.028;2022-09-27T14:17:50;16.30;76.60
913;DHT22;443;51.448;7.028;2022-09-27T14:20:35;16.40;76.40
913;DHT22;443;51.448;7.028;2022-09-27T14:23:03;16.40;73.40
913;DHT22;443;51.448;7.028;2022-09-27T14:25:30;16.40;71.70
913;DHT22;443;51.448;7.028;2022-09-27T14:27:57;16.40;74.70
913;DHT22;443;51.448;7.028;2022-09-27T14:30:28;16.30;72.90
913;DHT22;443;51.448;7.028;2022-09-27T14:32:56;16.30;71.00
913;DHT22;443;51.448;7.028;2022-09-27T14:35:25;16.30;71.30
913;DHT22;443;51.448;7.028;2022-09-27T14:38:12;16.30;76.00
913;DHT22;443;51.448;7.028;2022-09-27T14:40:42;16.30;74.60
913;DHT22;443;51.448;7.028;2022-09-27T14:43:15;16.20;71.10
913;DHT22;443;51.448;7.028;2022-09-27T14:45:44;16.20;74.20
913;DHT22;443;51.448;7.028;2022-09-27T14:48:21;16.20;70.50
913;DHT22;443;51.448;7.028;2022-09-27T14:50:56;16.20;75.10
913;DHT22;443;51.448;7.028;2022-09-27T14:53:27;16.30;74.70
913;DHT22;443;51.448;7.028;2022-09-27T14:55:55;16.20;70.90
913;DHT22;443;51.448;7.028;2022-09-27T14:58:22;16.30;76.80
913;DHT22;443;51.448;7.028;2022-09-27T15:00:51;16.30;74.60
913;DHT22;443;51.448;7.028;2022-09-27T15:03:22;16.20;71.00
913;DHT22;443;51.448;7.028;2022-09-27T15:05:50;16.20;74.00
913;DHT22;443;51.448;7.028;2022-09-27T15:08:20;16.20;71.80
913;DHT22;443;51.448;7.028;2022-09-27T15:10:48;16.20;72.40
913;DHT22;443;51.448;7.028;2022-09-27T15:13:17;16.20;75.00
913;DHT22;443;51.448;7.028;2022-09-27T15:15:45;16.20;72.30
913;DHT22;443;51.448;7.028;2022-09-27T15:18:45;16.30;72.40
913;DHT22;443;51.448;7.028;2022-09-27T15:21:14;16.30;73.70
913;DHT22;443;51.448;7.028;2022-09-27T15:23:42;16.30;73.20
913;DHT22;443;51.448;7.028;2022-09-27T15:26:14;16.30;71.90
913;DHT22;443;51.448;7.028;2022-09-27T15:28:43;16.30;72.70
913;DHT22;443;51.448;7.028;2022-09-27T15:31:10;16.40;74.20
913;DHT22;443;51.448;7.028;2022-09-27T15:33:39;16.30;72.90
913;DHT22;443;51.448;7.028;2022-09-27T15:36:08;16.40;75.50
913;DHT22;443;51.448;7.028;2022-09-27T15:38:37;16.30;71.60
913;DHT22;443;51.448;7.028;2022-09-27T15:41:11;16.30;73.00
913;DHT22;443;51.448;7.028;2022-09-27T15:43:41;16.30;72.00
913;DHT22;443;51.448;7.028;2022-09-27T15:46:39;16.30;72.50
913;DHT22;443;51.448;7.028;2022-09-27T15:49:22;16.30;70.90
913;DHT22;443;51.448;7.028;2022-09-27T15:51:55;16.30;71.50
913;DHT22;443;51.448;7.028;2022-09-27T15:54:23;16.30;72.10
913;DHT22;443;51.448;7.028;2022-09-27T15:56:52;16.30;72.40
913;DHT22;443;51.448;7.028;2022-09-27T15:59:22;16.30;73.50
913;DHT22;443;51.448;7.028;2022-09-27T16:01:54;16.30;75.10
913;DHT22;443;51.448;7.028;2022-09-27T16:04:21;16.30;71.70
913;DHT22;443;51.448;7.028;2022-09-27T16:06:48;16.30;76.80
913;DHT22;443;51.448;7.028;2022-09-27T16:09:17;16.30;72.40
913;DHT22;443;51.448;7.028;2022-09-27T16:11:45;16.30;74.30
913;DHT22;443;51.448;7.028;2022-09-27T16:14:13;16.30;74.60
913;DHT22;443;51.448;7.028;2022-09-27T16:16:43;16.30;72.70
913;DHT22;443;51.448;7.028;2022-09-27T16:19:11;16.20;72.70
913;DHT22;443;51.448;7.028;2022-09-27T16:21:38;16.20;74.30
913;DHT22;443;51.448;7.028;2022-09-27T16:24:07;16.20;74.70
913;DHT22;443;51.448;7.028;2022-09-27T16:26:36;16.00;74.40
913;DHT22;443;51.448;7.028;2022-09-27T16:29:02;16.00;77.10
913;DHT22;443;51.448;7.028;2022-09-27T16:31:29;16.10;75.60
913;DHT22;443;51.448;7.028;2022-09-27T16:33:56;16.00;74.40
913;DHT22;443;51.448;7.028;2022-09-27T16:36:24;16.00;76.30
913;DHT22;443;51.448;7.028;2022-09-27T16:38:52;15.90;73.90
913;DHT22;443;51.448;7.028;2022-09-27T16:41:20;15.90;76.00
913;DHT22;443;51.448;7.028;2022-09-27T16:43:49;15.90;76.90
913;DHT22;443;51.448;7.028;2022-09-27T16:46:16;15.90;75.00
913;DHT22;443;51.448;7.028;2022-09-27T16:48:44;15.90;77.20
913;DHT22;443;51.448;7.028;2022-09-27T16:51:13;15.80;74.10
913;DHT22;443;51.448;7.028;2022-09-27T16:53:58;15.80;77.30
913;DHT22;443;51.448;7.028;2022-09-27T16:56:25;15.80;74.40
913;DHT22;443;51.448;7.028;2022-09-27T16:58:53;15.80;75.70
913;DHT22;443;51.448;7.028;2022-09-27T17:01:20;15.80;76.30
913;DHT22;443;51.448;7.028;2022-09-27T17:03:51;15.80;74.90
913;DHT22;443;51.448;7.028;2022-09-27T17:06:18;15.60;74.40
913;DHT22;443;51.448;7.028;2022-09-27T17:08:45;15.70;75.10
913;DHT22;443;51.448;7.028;2022-09-27T17:11:13;15.80;76.60
913;DHT22;443;51.448;7.028;2022-09-27T17:13:41;15.80;75.50
913;DHT22;443;51.448;7.028;2022-09-27T17:16:09;15.80;76.70